sensor_id;sensor_type;location;lat;lon;timestamp;temperature;humidity
76857;DHT22;65829;44.726;37.764;2022-12-07T00:03:37;5.63;87.39
76857;DHT22;65829;44.726;37.764;2022-12-07T00:06:05;5.61;87.30
76857;DHT22;65829;44.726;37.764;2022-12-07T00:08:33;5.53;87.61
76857;DHT22;65829;44.726;37.764;2022-12-07T00:11:08;5.47;87.50
76857;DHT22;65829;44.726;37.764;2022-12-07T00:13:35;5.52;87.17
76857;DHT22;65829;44.726;37.764;2022-12-07T00:16:04;5.42;87.03
76857;DHT22;65829;44.726;37.764;2022-12-07T00:18:31;5.33;87.35
76857;DHT22;65829;44.726;37.764;2022-12-07T00:23:37;5.04;88.76
76857;DHT22;65829;44.726;37.764;2022-12-07T00:26:06;4.94;89.16
76857;DHT22;65829;44.726;37.764;2022-12-07T00:28:33;4.90;88.64
76857;DHT22;65829;44.726;37.764;2022-12-07T00:31:11;4.87;88.97
76857;DHT22;65829;44.726;37.764;2022-12-07T00:33:37;4.74;89.47
76857;DHT22;65829;44.726;37.764;2022-12-07T00:36:10;4.67;89.89
76857;DHT22;65829;44.726;37.764;2022-12-07T00:38:37;4.57;89.62
76857;DHT22;65829;44.726;37.764;2022-12-07T00:41:08;4.54;90.31
76857;DHT22;65829;44.726;37.764;2022-12-07T00:43:35;4.50;90.76
76857;DHT22;65829;44.726;37.764;2022-12-07T00:46:02;4.44;90.77
76857;DHT22;65829;44.726;37.764;2022-12-07T00:48:29;4.38;91.30
76857;DHT22;65829;44.726;37.764;2022-12-07T00:50:56;4.29;91.63
76857;DHT22;65829;44.726;37.764;2022-12-07T00:53:22;4.27;91.98
76857;DHT22;65829;44.726;37.764;2022-12-07T00:55:49;4.26;92.71
76857;DHT22;65829;44.726;37.764;2022-12-07T00:58:16;4.23;92.05
76857;DHT22;65829;44.726;37.764;2022-12-07T01:00:42;4.22;92.57
76857;DHT22;65829;44.726;37.764;2022-12-07T01:03:11;4.31;92.07
76857;DHT22;65829;44.726;37.764;2022-12-07T01:05:38;4.28;91.37
76857;DHT22;65829;44.726;37.764;2022-12-07T01:08:05;4.27;92.01
76857;DHT22;65829;44.726;37.764;2022-12-07T01:10:32;4.31;92.46
76857;DHT22;65829;44.726;37.764;2022-12-07T01:12:58;4.37;92.85
76857;DHT22;65829;44.726;37.764;2022-12-07T01:15:25;4.37;93.12
76857;DHT22;65829;44.726;37.764;2022-12-07T01:17:52;4.41;93.09
76857;DHT22;65829;44.726;37.764;2022-12-07T01:20:20;4.37;92.75
76857;DHT22;65829;44.726;37.764;2022-12-07T01:22:47;4.38;92.60
76857;DHT22;65829;44.726;37.764;2022-12-07T01:25:13;4.34;92.66
76857;DHT22;65829;44.726;37.764;2022-12-07T01:27:40;4.29;92.73
76857;DHT22;65829;44.726;37.764;2022-12-07T01:30:07;4.29;92.71
76857;DHT22;65829;44.726;37.764;2022-12-07T01:32:34;4.29;92.91
76857;DHT22;65829;44.726;37.764;2022-12-07T01:35:00;4.28;93.30
76857;DHT22;65829;44.726;37.764;2022-12-07T01:37:27;4.31;93.05
76857;DHT22;65829;44.726;37.764;2022-12-07T01:39:53;4.30;93.86
76857;DHT22;65829;44.726;37.764;2022-12-07T01:42:21;4.43;94.09
76857;DHT22;65829;44.726;37.764;2022-12-07T01:45:31;4.46;94.23
76857;DHT22;65829;44.726;37.764;2022-12-07T01:47:59;4.53;93.58
76857;DHT22;65829;44.726;37.764;2022-12-07T01:50:28;4.60;93.95
76857;DHT22;65829;44.726;37.764;2022-12-07T01:52:58;4.65;93.18
76857;DHT22;65829;44.726;37.764;2022-12-07T01:55:26;4.72;93.20
76857;DHT22;65829;44.726;37.764;2022-12-07T01:57:54;4.76;93.14
76857;DHT22;65829;44.726;37.764;2022-12-07T02:00:21;4.81;92.80
76857;DHT22;65829;44.726;37.764;2022-12-07T02:05:19;4.93;92.63
76857;DHT22;65829;44.726;37.764;2022-12-07T02:07:47;4.97;92.33
76857;DHT22;65829;44.726;37.764;2022-12-07T02:10:16;5.00;92.40
76857;DHT22;65829;44.726;37.764;2022-12-07T02:12:44;5.00;92.74
76857;DHT22;65829;44.726;37.764;2022-12-07T02:15:13;4.98;93.17
76857;DHT22;65829;44.726;37.764;2022-12-07T02:23:45;5.17;92.89
76857;DHT22;65829;44.726;37.764;2022-12-07T02:29:25;5.34;93.01
76857;DHT22;65829;44.726;37.764;2022-12-07T02:32:06;5.42;92.53
76857;DHT22;65829;44.726;37.764;2022-12-07T02:39:59;5.61;92.02
76857;DHT22;65829;44.726;37.764;2022-12-07T02:42:32;5.57;91.74
76857;DHT22;65829;44.726;37.764;2022-12-07T02:45:00;5.57;91.78
76857;DHT22;65829;44.726;37.764;2022-12-07T02:47:29;5.68;91.82
76857;DHT22;65829;44.726;37.764;2022-12-07T02:49:57;5.65;91.81
76857;DHT22;65829;44.726;37.764;2022-12-07T02:52:24;5.65;92.05
76857;DHT22;65829;44.726;37.764;2022-12-07T02:54:51;5.72;92.27
76857;DHT22;65829;44.726;37.764;2022-12-07T02:57:50;5.68;92.85
76857;DHT22;65829;44.726;37.764;2022-12-07T03:00:20;5.67;92.91
76857;DHT22;65829;44.726;37.764;2022-12-07T03:08:38;5.76;93.48
76857;DHT22;65829;44.726;37.764;2022-12-07T03:11:28;5.83;94.32
76857;DHT22;65829;44.726;37.764;2022-12-07T03:14:01;5.86;94.15
76857;DHT22;65829;44.726;37.764;2022-12-07T03:16:31;5.93;94.27
76857;DHT22;65829;44.726;37.764;2022-12-07T03:19:20;5.95;93.82
76857;DHT22;65829;44.726;37.764;2022-12-07T03:21:55;6.02;93.36
76857;DHT22;65829;44.726;37.764;2022-12-07T03:24:27;6.08;93.67
76857;DHT22;65829;44.726;37.764;2022-12-07T03:27:04;6.14;93.51
76857;DHT22;65829;44.726;37.764;2022-12-07T03:29:45;6.17;94.07
76857;DHT22;65829;44.726;37.764;2022-12-07T03:32:41;6.24;94.61
76857;DHT22;65829;44.726;37.764;2022-12-07T03:35:26;6.31;94.79
76857;DHT22;65829;44.726;37.764;2022-12-07T03:40:46;6.30;96.34
76857;DHT22;65829;44.726;37.764;2022-12-07T03:43:17;6.34;96.94
76857;DHT22;65829;44.726;37.764;2022-12-07T03:48:42;6.43;97.77
76857;DHT22;65829;44.726;37.764;2022-12-07T03:51:28;6.54;99.01
76857;DHT22;65829;44.726;37.764;2022-12-07T03:54:05;6.74;100.83
76857;DHT22;65829;44.726;37.764;2022-12-07T03:56:34;7.02;100.93
76857;DHT22;65829;44.726;37.764;2022-12-07T03:59:01;7.22;100.74
76857;DHT22;65829;44.726;37.764;2022-12-07T04:01:27;7.34;100.03
76857;DHT22;65829;44.726;37.764;2022-12-07T04:03:54;7.44;100.01
76857;DHT22;65829;44.726;37.764;2022-12-07T04:06:20;7.56;99.81
76857;DHT22;65829;44.726;37.764;2022-12-07T04:08:47;7.64;99.19
76857;DHT22;65829;44.726;37.764;2022-12-07T04:11:13;7.70;98.93
76857;DHT22;65829;44.726;37.764;2022-12-07T04:13:40;7.73;98.52
76857;DHT22;65829;44.726;37.764;2022-12-07T04:16:24;7.82;98.90
76857;DHT22;65829;44.726;37.764;2022-12-07T04:18:51;7.84;98.31
76857;DHT22;65829;44.726;37.764;2022-12-07T04:21:18;7.86;97.97
76857;DHT22;65829;44.726;37.764;2022-12-07T04:23:44;7.83;98.45
76857;DHT22;65829;44.726;37.764;2022-12-07T04:26:11;7.83;98.34
76857;DHT22;65829;44.726;37.764;2022-12-07T04:28:37;7.77;98.25
76857;DHT22;65829;44.726;37.764;2022-12-07T04:31:04;7.73;98.42
76857;DHT22;65829;44.726;37.764;2022-12-07T04:33:30;7.75;98.46
76857;DHT22;65829;44.726;37.764;2022-12-07T04:35:57;7.81;98.67
76857;DHT22;65829;44.726;37.764;2022-12-07T04:38:23;7.81;99.25
76857;DHT22;65829;44.726;37.764;2022-12-07T04:40:50;7.85;99.39
76857;DHT22;65829;44.726;37.764;2022-12-07T04:43:16;7.92;99.26
76857;DHT22;65829;44.726;37.764;2022-12-07T04:45:47;8.00;99.42
76857;DHT22;65829;44.726;37.764;2022-12-07T04:48:14;8.03;99.37
76857;DHT22;65829;44.726;37.764;2022-12-07T04:50:41;8.06;98.82
76857;DHT22;65829;44.726;37.764;2022-12-07T04:53:07;8.05;98.53
76857;DHT22;65829;44.726;37.764;2022-12-07T04:55:34;8.05;98.60
76857;DHT22;65829;44.726;37.764;2022-12-07T04:58:00;8.04;98.41
76857;DHT22;65829;44.726;37.764;2022-12-07T05:00:27;8.09;98.36
76857;DHT22;65829;44.726;37.764;2022-12-07T05:02:53;8.13;97.81
76857;DHT22;65829;44.726;37.764;2022-12-07T05:05:20;8.19;98.08
76857;DHT22;65829;44.726;37.764;2022-12-07T05:07:46;8.22;98.53
76857;DHT22;65829;44.726;37.764;2022-12-07T05:10:13;8.27;98.29
76857;DHT22;65829;44.726;37.764;2022-12-07T05:12:40;8.41;97.89
76857;DHT22;65829;44.726;37.764;2022-12-07T05:15:06;8.49;98.13
76857;DHT22;65829;44.726;37.764;2022-12-07T05:17:33;8.55;98.52
76857;DHT22;65829;44.726;37.764;2022-12-07T05:20:00;8.58;98.38
76857;DHT22;65829;44.726;37.764;2022-12-07T05:22:26;8.64;98.80
76857;DHT22;65829;44.726;37.764;2022-12-07T05:24:55;8.70;98.85
76857;DHT22;65829;44.726;37.764;2022-12-07T05:27:22;8.72;98.87
76857;DHT22;65829;44.726;37.764;2022-12-07T05:29:50;8.80;98.12
76857;DHT22;65829;44.726;37.764;2022-12-07T05:32:17;8.86;98.13
76857;DHT22;65829;44.726;37.764;2022-12-07T05:34:45;8.94;97.61
76857;DHT22;65829;44.726;37.764;2022-12-07T05:37:11;9.02;97.45
76857;DHT22;65829;44.726;37.764;2022-12-07T05:39:38;9.08;97.24
76857;DHT22;65829;44.726;37.764;2022-12-07T05:42:09;9.10;97.50
76857;DHT22;65829;44.726;37.764;2022-12-07T05:44:43;9.15;97.61
76857;DHT22;65829;44.726;37.764;2022-12-07T05:47:12;9.21;97.46
76857;DHT22;65829;44.726;37.764;2022-12-07T05:49:39;9.25;96.80
76857;DHT22;65829;44.726;37.764;2022-12-07T05:52:06;9.21;96.87
76857;DHT22;65829;44.726;37.764;2022-12-07T05:54:33;9.21;97.16
76857;DHT22;65829;44.726;37.764;2022-12-07T05:56:59;9.23;96.95
76857;DHT22;65829;44.726;37.764;2022-12-07T05:59:26;9.26;96.99
76857;DHT22;65829;44.726;37.764;2022-12-07T06:04:23;9.15;97.10
76857;DHT22;65829;44.726;37.764;2022-12-07T06:06:50;9.14;97.29
76857;DHT22;65829;44.726;37.764;2022-12-07T06:09:17;9.09;97.48
76857;DHT22;65829;44.726;37.764;2022-12-07T06:11:44;9.10;97.32
76857;DHT22;65829;44.726;37.764;2022-12-07T06:14:29;9.11;96.83
76857;DHT22;65829;44.726;37.764;2022-12-07T06:16:56;9.09;96.84
76857;DHT22;65829;44.726;37.764;2022-12-07T06:19:22;9.09;97.03
76857;DHT22;65829;44.726;37.764;2022-12-07T06:21:49;9.07;97.41
76857;DHT22;65829;44.726;37.764;2022-12-07T06:24:16;9.09;96.65
76857;DHT22;65829;44.726;37.764;2022-12-07T06:26:43;9.10;96.26
76857;DHT22;65829;44.726;37.764;2022-12-07T06:29:11;9.07;96.33
76857;DHT22;65829;44.726;37.764;2022-12-07T06:31:38;9.09;95.93
76857;DHT22;65829;44.726;37.764;2022-12-07T06:34:09;9.11;95.88
76857;DHT22;65829;44.726;37.764;2022-12-07T06:36:35;9.11;95.68
76857;DHT22;65829;44.726;37.764;2022-12-07T06:39:03;9.05;96.69
76857;DHT22;65829;44.726;37.764;2022-12-07T06:41:30;9.12;96.13
76857;DHT22;65829;44.726;37.764;2022-12-07T06:43:57;9.05;96.96
76857;DHT22;65829;44.726;37.764;2022-12-07T06:46:23;9.04;97.26
76857;DHT22;65829;44.726;37.764;2022-12-07T06:48:50;9.01;97.07
76857;DHT22;65829;44.726;37.764;2022-12-07T06:51:17;9.08;97.03
76857;DHT22;65829;44.726;37.764;2022-12-07T06:53:44;9.19;96.89
76857;DHT22;65829;44.726;37.764;2022-12-07T06:56:11;9.24;96.85
76857;DHT22;65829;44.726;37.764;2022-12-07T06:58:38;9.29;97.47
76857;DHT22;65829;44.726;37.764;2022-12-07T07:01:13;9.31;97.24
76857;DHT22;65829;44.726;37.764;2022-12-07T07:03:40;9.31;97.87
76857;DHT22;65829;44.726;37.764;2022-12-07T07:06:07;9.38;97.21
76857;DHT22;65829;44.726;37.764;2022-12-07T07:08:35;9.42;97.00
76857;DHT22;65829;44.726;37.764;2022-12-07T07:11:02;9.45;97.57
76857;DHT22;65829;44.726;37.764;2022-12-07T07:13:29;9.52;97.32
76857;DHT22;65829;44.726;37.764;2022-12-07T07:15:57;9.47;97.45
76857;DHT22;65829;44.726;37.764;2022-12-07T07:18:24;9.49;97.42
76857;DHT22;65829;44.726;37.764;2022-12-07T07:20:51;9.49;97.26
76857;DHT22;65829;44.726;37.764;2022-12-07T07:23:19;9.49;97.27
76857;DHT22;65829;44.726;37.764;2022-12-07T07:25:46;9.50;97.37
76857;DHT22;65829;44.726;37.764;2022-12-07T07:28:14;9.56;97.11
76857;DHT22;65829;44.726;37.764;2022-12-07T07:30:41;9.61;97.46
76857;DHT22;65829;44.726;37.764;2022-12-07T07:33:08;9.67;97.50
76857;DHT22;65829;44.726;37.764;2022-12-07T07:35:35;9.82;96.48
76857;DHT22;65829;44.726;37.764;2022-12-07T07:38:03;9.95;96.18
76857;DHT22;65829;44.726;37.764;2022-12-07T07:40:29;9.95;95.82
76857;DHT22;65829;44.726;37.764;2022-12-07T07:42:57;9.96;95.84
76857;DHT22;65829;44.726;37.764;2022-12-07T07:45:24;9.97;96.13
76857;DHT22;65829;44.726;37.764;2022-12-07T07:47:51;9.97;96.51
76857;DHT22;65829;44.726;37.764;2022-12-07T07:50:19;10.09;96.24
76857;DHT22;65829;44.726;37.764;2022-12-07T07:52:46;10.21;96.11
76857;DHT22;65829;44.726;37.764;2022-12-07T07:55:13;10.30;95.91
76857;DHT22;65829;44.726;37.764;2022-12-07T07:57:40;10.40;95.84
76857;DHT22;65829;44.726;37.764;2022-12-07T08:00:10;10.56;96.32
76857;DHT22;65829;44.726;37.764;2022-12-07T08:02:40;10.57;94.83
76857;DHT22;65829;44.726;37.764;2022-12-07T08:05:07;10.59;95.16
76857;DHT22;65829;44.726;37.764;2022-12-07T08:07:33;10.59;94.95
76857;DHT22;65829;44.726;37.764;2022-12-07T08:10:00;10.57;95.39
76857;DHT22;65829;44.726;37.764;2022-12-07T08:12:27;10.53;96.10
76857;DHT22;65829;44.726;37.764;2022-12-07T08:14:53;10.57;95.99
76857;DHT22;65829;44.726;37.764;2022-12-07T08:17:20;10.62;95.08
76857;DHT22;65829;44.726;37.764;2022-12-07T08:19:46;10.66;94.72
76857;DHT22;65829;44.726;37.764;2022-12-07T08:22:13;10.66;95.02
76857;DHT22;65829;44.726;37.764;2022-12-07T08:24:39;10.62;95.91
76857;DHT22;65829;44.726;37.764;2022-12-07T08:27:06;10.60;95.70
76857;DHT22;65829;44.726;37.764;2022-12-07T08:29:32;10.62;95.35
76857;DHT22;65829;44.726;37.764;2022-12-07T08:31:59;10.56;95.17
76857;DHT22;65829;44.726;37.764;2022-12-07T08:34:27;10.50;94.75
76857;DHT22;65829;44.726;37.764;2022-12-07T08:36:54;10.55;95.20
76857;DHT22;65829;44.726;37.764;2022-12-07T08:39:20;10.57;95.55
76857;DHT22;65829;44.726;37.764;2022-12-07T08:41:47;10.54;95.47
76857;DHT22;65829;44.726;37.764;2022-12-07T08:44:13;10.60;95.43
76857;DHT22;65829;44.726;37.764;2022-12-07T09:02:56;11.45;96.37
76857;DHT22;65829;44.726;37.764;2022-12-07T09:05:23;11.70;94.88
76857;DHT22;65829;44.726;37.764;2022-12-07T09:07:51;11.84;94.15
76857;DHT22;65829;44.726;37.764;2022-12-07T09:10:21;12.05;93.47
76857;DHT22;65829;44.726;37.764;2022-12-07T09:12:48;12.15;91.81
76857;DHT22;65829;44.726;37.764;2022-12-07T09:15:15;12.22;91.47
76857;DHT22;65829;44.726;37.764;2022-12-07T09:17:42;12.30;91.15
76857;DHT22;65829;44.726;37.764;2022-12-07T09:20:09;12.47;91.31
76857;DHT22;65829;44.726;37.764;2022-12-07T09:22:35;12.79;90.64
76857;DHT22;65829;44.726;37.764;2022-12-07T09:25:03;12.92;87.18
76857;DHT22;65829;44.726;37.764;2022-12-07T09:27:30;13.00;88.12
76857;DHT22;65829;44.726;37.764;2022-12-07T09:29:56;13.07;85.16
76857;DHT22;65829;44.726;37.764;2022-12-07T09:32:23;13.05;85.53
76857;DHT22;65829;44.726;37.764;2022-12-07T09:34:49;13.12;85.40
76857;DHT22;65829;44.726;37.764;2022-12-07T09:37:16;13.19;84.55
76857;DHT22;65829;44.726;37.764;2022-12-07T09:39:43;13.29;84.55
76857;DHT22;65829;44.726;37.764;2022-12-07T09:44:58;13.17;85.42
76857;DHT22;65829;44.726;37.764;2022-12-07T09:47:26;13.29;85.16
76857;DHT22;65829;44.726;37.764;2022-12-07T09:50:00;13.49;82.49
76857;DHT22;65829;44.726;37.764;2022-12-07T09:52:29;13.40;82.65
76857;DHT22;65829;44.726;37.764;2022-12-07T09:54:56;13.49;82.80
76857;DHT22;65829;44.726;37.764;2022-12-07T09:57:31;13.26;83.10
76857;DHT22;65829;44.726;37.764;2022-12-07T10:00:04;13.21;80.62
76857;DHT22;65829;44.726;37.764;2022-12-07T10:04:59;13.14;81.88
76857;DHT22;65829;44.726;37.764;2022-12-07T10:07:26;13.15;82.87
76857;DHT22;65829;44.726;37.764;2022-12-07T10:09:52;13.10;82.81
76857;DHT22;65829;44.726;37.764;2022-12-07T10:12:19;13.07;82.96
76857;DHT22;65829;44.726;37.764;2022-12-07T10:15:03;13.10;81.52
76857;DHT22;65829;44.726;37.764;2022-12-07T10:20:23;13.10;82.23
76857;DHT22;65829;44.726;37.764;2022-12-07T10:23:04;13.08;81.79
76857;DHT22;65829;44.726;37.764;2022-12-07T10:25:34;13.11;81.92
76857;DHT22;65829;44.726;37.764;2022-12-07T10:28:16;13.12;82.14
76857;DHT22;65829;44.726;37.764;2022-12-07T10:30:52;12.93;82.50
76857;DHT22;65829;44.726;37.764;2022-12-07T10:33:44;13.09;81.49
76857;DHT22;65829;44.726;37.764;2022-12-07T10:41:26;13.84;79.78
76857;DHT22;65829;44.726;37.764;2022-12-07T10:43:55;14.06;78.05
76857;DHT22;65829;44.726;37.764;2022-12-07T10:46:45;14.11;76.39
76857;DHT22;65829;44.726;37.764;2022-12-07T10:55:47;14.86;72.41
76857;DHT22;65829;44.726;37.764;2022-12-07T11:04:02;15.46;73.41
76857;DHT22;65829;44.726;37.764;2022-12-07T11:06:54;15.61;70.02
76857;DHT22;65829;44.726;37.764;2022-12-07T11:18:21;14.80;72.41
76857;DHT22;65829;44.726;37.764;2022-12-07T11:24:01;14.77;75.07
76857;DHT22;65829;44.726;37.764;2022-12-07T11:37:35;14.44;72.44
76857;DHT22;65829;44.726;37.764;2022-12-07T11:43:30;14.39;76.15
76857;DHT22;65829;44.726;37.764;2022-12-07T11:46:11;14.34;77.13
76857;DHT22;65829;44.726;37.764;2022-12-07T11:51:20;14.30;74.12
76857;DHT22;65829;44.726;37.764;2022-12-07T11:56:19;14.24;74.38
76857;DHT22;65829;44.726;37.764;2022-12-07T11:59:00;14.30;76.31
76857;DHT22;65829;44.726;37.764;2022-12-07T12:01:48;14.27;74.44
76857;DHT22;65829;44.726;37.764;2022-12-07T12:07:22;14.00;76.03
76857;DHT22;65829;44.726;37.764;2022-12-07T12:15:27;13.79;76.59
76857;DHT22;65829;44.726;37.764;2022-12-07T12:18:23;13.75;76.62
76857;DHT22;65829;44.726;37.764;2022-12-07T12:21:03;13.77;77.67
76857;DHT22;65829;44.726;37.764;2022-12-07T12:23:42;13.74;76.91
76857;DHT22;65829;44.726;37.764;2022-12-07T12:33:52;13.68;76.60
76857;DHT22;65829;44.726;37.764;2022-12-07T12:39:14;13.70;77.38
76857;DHT22;65829;44.726;37.764;2022-12-07T12:47:04;13.55;78.16
76857;DHT22;65829;44.726;37.764;2022-12-07T12:50:13;13.55;78.88
76857;DHT22;65829;44.726;37.764;2022-12-07T12:57:35;13.51;80.11
76857;DHT22;65829;44.726;37.764;2022-12-07T13:00:23;13.50;79.81
76857;DHT22;65829;44.726;37.764;2022-12-07T13:02:55;13.49;79.47
76857;DHT22;65829;44.726;37.764;2022-12-07T13:05:28;13.46;79.26
76857;DHT22;65829;44.726;37.764;2022-12-07T13:08:18;13.45;79.55
76857;DHT22;65829;44.726;37.764;2022-12-07T13:10:48;13.41;79.90
76857;DHT22;65829;44.726;37.764;2022-12-07T13:15:51;13.31;80.91
76857;DHT22;65829;44.726;37.764;2022-12-07T13:20:58;13.18;81.26
76857;DHT22;65829;44.726;37.764;2022-12-07T13:23:36;13.12;81.55
76857;DHT22;65829;44.726;37.764;2022-12-07T13:29:18;13.10;81.12
76857;DHT22;65829;44.726;37.764;2022-12-07T13:31:51;13.04;80.73
76857;DHT22;65829;44.726;37.764;2022-12-07T13:34:34;13.02;80.40
76857;DHT22;65829;44.726;37.764;2022-12-07T13:37:08;12.97;80.41
76857;DHT22;65829;44.726;37.764;2022-12-07T13:39:54;12.95;80.43
76857;DHT22;65829;44.726;37.764;2022-12-07T13:42:28;12.88;80.65
76857;DHT22;65829;44.726;37.764;2022-12-07T13:44:56;12.86;80.92
76857;DHT22;65829;44.726;37.764;2022-12-07T13:47:34;12.80;81.43
76857;DHT22;65829;44.726;37.764;2022-12-07T13:52:49;12.60;82.64
76857;DHT22;65829;44.726;37.764;2022-12-07T13:55:16;12.53;82.64
76857;DHT22;65829;44.726;37.764;2022-12-07T13:57:44;12.47;83.99
76857;DHT22;65829;44.726;37.764;2022-12-07T14:00:19;12.32;83.84
76857;DHT22;65829;44.726;37.764;2022-12-07T14:03:23;12.31;84.07
76857;DHT22;65829;44.726;37.764;2022-12-07T14:06:10;12.16;84.58
76857;DHT22;65829;44.726;37.764;2022-12-07T14:08:39;11.96;86.01
76857;DHT22;65829;44.726;37.764;2022-12-07T14:11:06;11.83;87.98
76857;DHT22;65829;44.726;37.764;2022-12-07T14:13:37;11.71;89.01
76857;DHT22;65829;44.726;37.764;2022-12-07T14:16:18;11.54;89.81
76857;DHT22;65829;44.726;37.764;2022-12-07T14:18:48;11.41;90.60
76857;DHT22;65829;44.726;37.764;2022-12-07T14:21:19;11.31;91.28
76857;DHT22;65829;44.726;37.764;2022-12-07T14:24:17;11.19;92.00
76857;DHT22;65829;44.726;37.764;2022-12-07T14:26:49;11.12;92.33
76857;DHT22;65829;44.726;37.764;2022-12-07T14:29:31;11.08;92.39
76857;DHT22;65829;44.726;37.764;2022-12-07T14:32:04;10.99;92.50
76857;DHT22;65829;44.726;37.764;2022-12-07T14:34:38;10.95;92.50
76857;DHT22;65829;44.726;37.764;2022-12-07T14:37:09;11.02;91.41
76857;DHT22;65829;44.726;37.764;2022-12-07T14:39:35;11.00;91.63
76857;DHT22;65829;44.726;37.764;2022-12-07T14:42:02;10.93;91.98
76857;DHT22;65829;44.726;37.764;2022-12-07T14:44:29;10.82;92.43
76857;DHT22;65829;44.726;37.764;2022-12-07T14:46:55;10.81;92.63
76857;DHT22;65829;44.726;37.764;2022-12-07T14:49:22;10.74;93.39
76857;DHT22;65829;44.726;37.764;2022-12-07T14:51:48;10.68;93.64
76857;DHT22;65829;44.726;37.764;2022-12-07T14:54:19;10.62;94.14
76857;DHT22;65829;44.726;37.764;2022-12-07T14:56:46;10.53;94.45
76857;DHT22;65829;44.726;37.764;2022-12-07T14:59:17;10.45;94.85
76857;DHT22;65829;44.726;37.764;2022-12-07T15:01:45;10.43;94.89
76857;DHT22;65829;44.726;37.764;2022-12-07T15:04:11;10.40;94.79
76857;DHT22;65829;44.726;37.764;2022-12-07T15:06:38;10.36;95.14
76857;DHT22;65829;44.726;37.764;2022-12-07T15:09:05;10.33;95.17
76857;DHT22;65829;44.726;37.764;2022-12-07T15:11:32;10.33;95.05
76857;DHT22;65829;44.726;37.764;2022-12-07T15:13:58;10.30;95.20
76857;DHT22;65829;44.726;37.764;2022-12-07T15:16:35;10.26;95.15
76857;DHT22;65829;44.726;37.764;2022-12-07T15:19:02;10.31;94.75
76857;DHT22;65829;44.726;37.764;2022-12-07T15:21:29;10.26;94.98
76857;DHT22;65829;44.726;37.764;2022-12-07T15:23:56;10.22;94.98
76857;DHT22;65829;44.726;37.764;2022-12-07T15:26:23;10.18;94.98
76857;DHT22;65829;44.726;37.764;2022-12-07T15:28:49;10.09;95.14
76857;DHT22;65829;44.726;37.764;2022-12-07T15:31:17;10.05;95.33
76857;DHT22;65829;44.726;37.764;2022-12-07T15:33:44;10.06;95.17
76857;DHT22;65829;44.726;37.764;2022-12-07T15:36:31;9.97;95.36
76857;DHT22;65829;44.726;37.764;2022-12-07T15:38:58;10.08;95.17
76857;DHT22;65829;44.726;37.764;2022-12-07T15:41:26;10.08;95.04
76857;DHT22;65829;44.726;37.764;2022-12-07T15:43:53;10.15;94.42
76857;DHT22;65829;44.726;37.764;2022-12-07T15:46:39;10.13;94.07
76857;DHT22;65829;44.726;37.764;2022-12-07T15:49:11;10.16;93.80
76857;DHT22;65829;44.726;37.764;2022-12-07T15:51:39;10.06;94.52
76857;DHT22;65829;44.726;37.764;2022-12-07T15:54:05;9.98;94.49
76857;DHT22;65829;44.726;37.764;2022-12-07T15:56:32;9.96;94.42
76857;DHT22;65829;44.726;37.764;2022-12-07T15:58:58;9.96;94.25
76857;DHT22;65829;44.726;37.764;2022-12-07T16:01:25;9.86;94.85
76857;DHT22;65829;44.726;37.764;2022-12-07T16:03:51;9.82;94.88
76857;DHT22;65829;44.726;37.764;2022-12-07T16:06:18;9.77;95.36
76857;DHT22;65829;44.726;37.764;2022-12-07T16:08:46;9.76;95.35
76857;DHT22;65829;44.726;37.764;2022-12-07T16:11:13;9.67;95.19
76857;DHT22;65829;44.726;37.764;2022-12-07T16:13:40;9.60;95.54
76857;DHT22;65829;44.726;37.764;2022-12-07T16:16:10;9.52;96.01
76857;DHT22;65829;44.726;37.764;2022-12-07T16:18:38;9.51;96.00
76857;DHT22;65829;44.726;37.764;2022-12-07T16:21:05;9.48;95.98
76857;DHT22;65829;44.726;37.764;2022-12-07T16:23:32;9.46;95.87
76857;DHT22;65829;44.726;37.764;2022-12-07T16:26:13;9.45;96.09
76857;DHT22;65829;44.726;37.764;2022-12-07T16:28:40;9.39;96.23
76857;DHT22;65829;44.726;37.764;2022-12-07T16:31:09;9.37;96.12
76857;DHT22;65829;44.726;37.764;2022-12-07T16:33:38;9.44;96.36
76857;DHT22;65829;44.726;37.764;2022-12-07T16:36:06;9.44;96.19
76857;DHT22;65829;44.726;37.764;2022-12-07T16:38:33;9.50;95.68
76857;DHT22;65829;44.726;37.764;2022-12-07T16:40:59;9.44;95.39
76857;DHT22;65829;44.726;37.764;2022-12-07T16:43:26;9.38;95.93
76857;DHT22;65829;44.726;37.764;2022-12-07T16:45:53;9.36;95.84
76857;DHT22;65829;44.726;37.764;2022-12-07T16:48:19;9.34;95.71
76857;DHT22;65829;44.726;37.764;2022-12-07T16:50:47;9.36;95.34
76857;DHT22;65829;44.726;37.764;2022-12-07T16:53:14;9.34;95.25
76857;DHT22;65829;44.726;37.764;2022-12-07T16:55:43;9.30;95.65
76857;DHT22;65829;44.726;37.764;2022-12-07T16:58:15;9.24;95.84
76857;DHT22;65829;44.726;37.764;2022-12-07T17:00:43;9.27;95.97
76857;DHT22;65829;44.726;37.764;2022-12-07T17:03:09;9.27;96.36
76857;DHT22;65829;44.726;37.764;2022-12-07T17:05:41;9.33;95.90
76857;DHT22;65829;44.726;37.764;2022-12-07T17:08:09;9.27;95.62
76857;DHT22;65829;44.726;37.764;2022-12-07T17:10:38;9.33;95.59
76857;DHT22;65829;44.726;37.764;2022-12-07T17:13:05;9.18;95.33
76857;DHT22;65829;44.726;37.764;2022-12-07T17:16:03;9.09;95.05
76857;DHT22;65829;44.726;37.764;2022-12-07T17:18:34;9.06;95.84
76857;DHT22;65829;44.726;37.764;2022-12-07T17:21:05;8.97;95.66
76857;DHT22;65829;44.726;37.764;2022-12-07T17:23:33;8.94;95.96
76857;DHT22;65829;44.726;37.764;2022-12-07T17:26:08;8.93;95.80
76857;DHT22;65829;44.726;37.764;2022-12-07T17:28:35;8.85;96.01
76857;DHT22;65829;44.726;37.764;2022-12-07T17:31:06;8.92;95.52
76857;DHT22;65829;44.726;37.764;2022-12-07T17:33:34;8.83;96.01
76857;DHT22;65829;44.726;37.764;2022-12-07T17:36:01;8.82;95.67
76857;DHT22;65829;44.726;37.764;2022-12-07T17:38:35;8.73;96.18
76857;DHT22;65829;44.726;37.764;2022-12-07T17:41:11;8.71;95.95
76857;DHT22;65829;44.726;37.764;2022-12-07T17:43:38;8.67;96.24
76857;DHT22;65829;44.726;37.764;2022-12-07T17:46:07;8.70;96.02
76857;DHT22;65829;44.726;37.764;2022-12-07T17:48:35;8.67;96.05
76857;DHT22;65829;44.726;37.764;2022-12-07T17:51:02;8.70;96.46
76857;DHT22;65829;44.726;37.764;2022-12-07T17:53:48;8.68;96.66
76857;DHT22;65829;44.726;37.764;2022-12-07T17:56:16;8.71;96.40
76857;DHT22;65829;44.726;37.764;2022-12-07T17:58:42;8.70;96.51
76857;DHT22;65829;44.726;37.764;2022-12-07T18:01:09;8.68;96.36
76857;DHT22;65829;44.726;37.764;2022-12-07T18:03:36;8.64;96.31
76857;DHT22;65829;44.726;37.764;2022-12-07T18:06:03;8.62;96.43
76857;DHT22;65829;44.726;37.764;2022-12-07T18:08:30;8.61;96.52
76857;DHT22;65829;44.726;37.764;2022-12-07T18:11:00;8.67;96.49
76857;DHT22;65829;44.726;37.764;2022-12-07T18:13:27;8.67;96.12